createdAt,value
2022-09-10T00:00:45.569Z,12.98
2022-09-10T00:03:13.532Z,12.95
2022-09-10T00:05:41.067Z,13.03
2022-09-10T00:08:08.683Z,13.06
2022-09-10T00:10:38.932Z,13.10
2022-09-10T00:13:05.721Z,13.09
2022-09-10T00:15:32.260Z,13.05
2022-09-10T00:17:58.774Z,13.07
2022-09-10T00:20:26.672Z,13.03
2022-09-10T00:22:53.180Z,13.04
2022-09-10T00:25:20.011Z,13.03
2022-09-10T00:27:46.558Z,12.99
2022-09-10T00:30:13.940Z,12.96
2022-09-10T00:32:40.554Z,12.99
2022-09-10T00:35:07.848Z,12.95
2022-09-10T00:37:35.701Z,12.82
2022-09-10T00:40:02.790Z,12.76
2022-09-10T00:42:29.361Z,12.87
2022-09-10T00:45:02.309Z,12.90
2022-09-10T00:47:33.630Z,12.93
2022-09-10T00:50:05.389Z,12.80
2022-09-10T00:52:34.442Z,12.80
2022-09-10T00:55:05.574Z,12.83
2022-09-10T00:57:32.439Z,12.71
2022-09-10T01:00:02.747Z,12.47
2022-09-10T01:02:29.266Z,12.49
2022-09-10T01:04:56.778Z,12.45
2022-09-10T01:07:24.734Z,12.49
2022-09-10T01:09:51.654Z,12.53
2022-09-10T01:12:38.223Z,12.64
2022-09-10T01:15:15.872Z,12.66
2022-09-10T01:18:08.233Z,12.79
2022-09-10T01:20:51.499Z,12.90
2022-09-10T01:24:04.281Z,12.77
2022-09-10T01:26:53.456Z,12.87
2022-09-10T01:29:28.240Z,12.78
2022-09-10T01:32:01.681Z,12.87
2022-09-10T01:34:34.382Z,12.90
2022-09-10T01:37:06.974Z,12.82
2022-09-10T01:39:34.286Z,12.85
2022-09-10T01:42:00.860Z,12.87
2022-09-10T01:44:46.659Z,12.81
2022-09-10T01:47:22.078Z,12.81
2022-09-10T01:50:08.068Z,12.80
2022-09-10T01:52:45.534Z,12.82
2022-09-10T01:55:33.662Z,12.71
2022-09-10T01:58:05.808Z,12.60
2022-09-10T02:00:38.081Z,12.61
2022-09-10T02:03:07.945Z,12.65
2022-09-10T02:05:37.103Z,12.62
2022-09-10T02:08:08.886Z,12.52
2022-09-10T02:10:48.971Z,12.43
2022-09-10T02:13:15.475Z,12.48
2022-09-10T02:15:43.442Z,12.46
2022-09-10T02:18:10.091Z,12.42
2022-09-10T02:20:36.621Z,12.41
2022-09-10T02:23:05.379Z,12.27
2022-09-10T02:25:35.511Z,12.28
2022-09-10T02:28:02.484Z,12.26
2022-09-10T02:30:29.047Z,12.27
2022-09-10T02:32:56.977Z,12.26
2022-09-10T02:35:23.517Z,12.27
2022-09-10T02:37:50.107Z,12.26
2022-09-10T02:40:16.681Z,12.23
2022-09-10T02:42:43.260Z,12.23
2022-09-10T02:45:10.060Z,12.27
2022-09-10T02:47:36.542Z,12.27
2022-09-10T02:50:05.346Z,12.20
2022-09-10T02:52:31.885Z,12.15
2022-09-10T02:54:58.440Z,12.10
2022-09-10T02:57:25.004Z,12.00
2022-09-10T02:59:51.699Z,12.07
2022-09-10T03:02:18.202Z,12.01
2022-09-10T03:04:44.777Z,11.93
2022-09-10T03:07:12.911Z,11.91
2022-09-10T03:09:39.440Z,11.88
2022-09-10T03:12:06.304Z,11.88
2022-09-10T03:14:32.856Z,11.87
2022-09-10T03:16:59.459Z,11.90
2022-09-10T03:19:26.309Z,11.93
2022-09-10T03:21:52.890Z,11.93
2022-09-10T03:24:21.372Z,11.92
2022-09-10T03:26:47.965Z,11.85
2022-09-10T03:29:14.512Z,11.87
2022-09-10T03:31:41.258Z,11.87
2022-09-10T03:34:10.196Z,11.88
2022-09-10T03:36:36.848Z,11.93
2022-09-10T03:39:03.479Z,11.87
2022-09-10T03:41:31.796Z,11.85
2022-09-10T03:43:58.407Z,11.87
2022-09-10T03:46:25.077Z,11.89
2022-09-10T03:48:55.217Z,11.91
2022-09-10T03:51:22.108Z,11.84
2022-09-10T03:53:48.712Z,11.85
2022-09-10T03:56:15.269Z,11.90
2022-09-10T03:58:43.161Z,11.83
2022-09-10T04:01:09.791Z,11.91
2022-09-10T04:03:36.370Z,11.90
2022-09-10T04:06:03.000Z,11.83
2022-09-10T04:08:29.559Z,11.82
2022-09-10T04:11:01.566Z,11.89
2022-09-10T04:13:28.116Z,11.95
2022-09-10T04:15:56.034Z,11.96
2022-09-10T04:18:22.595Z,11.93
2022-09-10T04:20:49.156Z,11.98
2022-09-10T04:23:15.966Z,11.94
2022-09-10T04:25:42.561Z,11.99
2022-09-10T04:28:09.110Z,12.01
2022-09-10T04:30:35.687Z,11.98
2022-09-10T04:33:03.816Z,11.87
2022-09-10T04:35:30.449Z,11.83
2022-09-10T04:37:57.002Z,11.83
2022-09-10T04:40:23.805Z,11.79
2022-09-10T04:42:51.092Z,11.80
2022-09-10T04:45:17.878Z,11.89
2022-09-10T04:47:44.672Z,11.91
2022-09-10T04:50:12.923Z,12.00
2022-09-10T04:52:39.496Z,12.07
2022-09-10T04:55:07.275Z,12.09
2022-09-10T04:57:33.900Z,12.16
2022-09-10T05:00:00.427Z,12.19
2022-09-10T05:02:27.055Z,12.13
2022-09-10T05:04:53.633Z,12.14
2022-09-10T05:07:21.544Z,12.15
2022-09-10T05:09:48.068Z,12.18
2022-09-10T05:12:14.624Z,12.24
2022-09-10T05:14:41.180Z,12.31
2022-09-10T05:17:07.748Z,12.31
2022-09-10T05:19:34.288Z,12.34
2022-09-10T05:22:00.836Z,12.43
2022-09-10T05:24:28.750Z,12.49
2022-09-10T05:26:55.337Z,12.51
2022-09-10T05:29:21.895Z,12.56
2022-09-10T05:31:48.592Z,12.57
2022-09-10T05:34:15.719Z,12.51
2022-09-10T05:36:42.285Z,12.54
2022-09-10T05:39:08.837Z,12.49
2022-09-10T05:41:36.787Z,12.43
2022-09-10T05:44:03.909Z,12.47
2022-09-10T05:46:30.467Z,12.41
2022-09-10T05:48:57.232Z,12.48
2022-09-10T05:51:23.926Z,12.50
2022-09-10T05:53:50.473Z,12.58
2022-09-10T05:56:17.015Z,12.57
2022-09-10T05:58:44.896Z,12.60
2022-09-10T06:01:11.493Z,12.62
2022-09-10T06:03:38.069Z,12.70
2022-09-10T06:06:04.707Z,12.73
2022-09-10T06:08:31.282Z,12.77
2022-09-10T06:10:59.184Z,12.83
2022-09-10T06:13:26.517Z,12.88
2022-09-10T06:15:54.468Z,12.99
2022-09-10T06:18:21.033Z,12.91
2022-09-10T06:20:47.917Z,12.99
2022-09-10T06:23:15.112Z,13.01
2022-09-10T06:25:41.986Z,13.04
2022-09-10T06:28:08.829Z,13.03
2022-09-10T06:30:35.427Z,13.10
2022-09-10T06:33:03.521Z,13.04
2022-09-10T06:35:30.094Z,13.10
2022-09-10T06:37:56.878Z,13.08
2022-09-10T06:40:23.389Z,13.03
2022-09-10T06:42:49.992Z,13.13
2022-09-10T06:45:16.557Z,13.29
2022-09-10T06:50:31.006Z,13.33
2022-09-10T06:52:57.526Z,13.44
2022-09-10T06:55:24.013Z,13.50
2022-09-10T06:57:50.524Z,13.57
2022-09-10T07:00:17.212Z,13.70
2022-09-10T07:02:43.727Z,13.71
2022-09-10T07:05:10.206Z,13.75
2022-09-10T07:07:38.052Z,13.86
2022-09-10T07:10:05.370Z,13.88
2022-09-10T07:12:31.880Z,13.82
2022-09-10T07:14:58.363Z,13.81
2022-09-10T07:17:27.662Z,13.83
2022-09-10T07:19:56.381Z,13.68
2022-09-10T07:22:22.954Z,13.81
2022-09-10T07:24:50.795Z,13.76
2022-09-10T07:27:17.304Z,13.88
2022-09-10T07:29:43.792Z,13.99
2022-09-10T07:32:13.365Z,14.03
2022-09-10T07:34:40.230Z,13.98
2022-09-10T07:37:06.715Z,13.89
2022-09-10T07:39:33.522Z,14.10
2022-09-10T07:42:01.422Z,14.20
2022-09-10T07:44:27.932Z,14.23
2022-09-10T07:46:54.426Z,14.22
2022-09-10T07:49:20.947Z,14.35
2022-09-10T07:51:47.441Z,14.42
2022-09-10T07:54:14.148Z,14.44
2022-09-10T07:56:40.647Z,14.52
2022-09-10T07:59:08.488Z,14.79
2022-09-10T08:01:35.053Z,14.81
2022-09-10T08:04:04.213Z,14.91
2022-09-10T08:06:31.725Z,14.92
2022-09-10T08:08:58.249Z,14.88
2022-09-10T08:11:24.777Z,14.85
2022-09-10T08:13:52.991Z,14.82
2022-09-10T08:16:22.602Z,14.85
2022-09-10T08:18:49.948Z,15.15
2022-09-10T08:21:17.950Z,15.21
2022-09-10T08:23:48.465Z,15.18
2022-09-10T08:26:15.210Z,15.07
2022-09-10T08:28:42.039Z,15.23
2022-09-10T08:31:10.746Z,15.25
2022-09-10T08:33:39.562Z,15.07
2022-09-10T08:36:08.213Z,15.06
2022-09-10T08:38:36.133Z,15.09
2022-09-10T08:41:09.679Z,14.97
2022-09-10T08:43:42.996Z,14.94
2022-09-10T08:46:16.184Z,14.94
2022-09-10T08:48:46.790Z,14.96
2022-09-10T08:51:17.396Z,15.14
2022-09-10T08:53:51.632Z,15.07
2022-09-10T08:56:21.536Z,14.84
2022-09-10T08:58:54.408Z,14.86
2022-09-10T09:01:29.213Z,14.72
2022-09-10T09:03:58.289Z,14.85
2022-09-10T09:06:31.905Z,15.04
2022-09-10T09:09:00.937Z,14.87
2022-09-10T09:11:39.257Z,14.73
2022-09-10T09:14:21.391Z,14.78
2022-09-10T09:17:14.537Z,14.69
2022-09-10T09:19:50.655Z,14.70
2022-09-10T09:22:19.327Z,14.86
2022-09-10T09:24:54.748Z,14.68
2022-09-10T09:27:21.431Z,14.55
2022-09-10T09:29:53.272Z,14.51
2022-09-10T09:32:21.572Z,14.64
2022-09-10T09:34:54.407Z,14.72
2022-09-10T09:37:24.650Z,14.92
2022-09-10T09:40:02.990Z,15.07
2022-09-10T09:42:39.400Z,14.98
2022-09-10T09:45:15.849Z,14.90
2022-09-10T09:47:44.674Z,14.90
2022-09-10T09:50:13.568Z,14.95
2022-09-10T09:52:42.612Z,15.07
2022-09-10T09:55:23.154Z,15.37
2022-09-10T09:57:58.180Z,15.41
2022-09-10T10:00:36.485Z,15.41
2022-09-10T10:03:06.928Z,15.28
2022-09-10T10:05:35.056Z,15.32
2022-09-10T10:08:02.018Z,15.37
2022-09-10T10:10:28.659Z,15.44
2022-09-10T10:12:55.575Z,15.38
2022-09-10T10:15:35.572Z,15.35
2022-09-10T10:18:28.528Z,15.61
2022-09-10T10:21:13.161Z,15.90
2022-09-10T10:23:39.861Z,15.95
2022-09-10T10:26:26.161Z,16.00
2022-09-10T10:28:57.538Z,16.08
2022-09-10T10:31:24.231Z,16.26
2022-09-10T10:34:00.770Z,16.47
2022-09-10T10:36:48.619Z,16.70
2022-09-10T10:39:21.211Z,16.65
2022-09-10T10:41:59.299Z,16.79
2022-09-10T10:44:48.452Z,16.65
2022-09-10T10:47:32.977Z,16.76
2022-09-10T10:50:08.545Z,16.65
2022-09-10T10:52:46.233Z,16.63
2022-09-10T10:55:21.349Z,16.69
2022-09-10T10:58:10.750Z,16.83
2022-09-10T11:00:40.909Z,16.59
2022-09-10T11:03:14.372Z,16.77
2022-09-10T11:05:44.765Z,17.08
2022-09-10T11:08:17.352Z,17.28
2022-09-10T11:10:47.765Z,17.38
2022-09-10T11:13:21.061Z,17.41
2022-09-10T11:15:53.460Z,17.56
2022-09-10T11:18:27.471Z,17.84
2022-09-10T11:21:00.365Z,18.12
2022-09-10T11:23:31.478Z,18.26
2022-09-10T11:26:04.362Z,18.39
2022-09-10T11:28:35.803Z,18.16
2022-09-10T11:31:14.045Z,18.11
2022-09-10T11:33:48.951Z,18.10
2022-09-10T11:36:23.299Z,17.97
2022-09-10T11:39:05.127Z,17.90
2022-09-10T11:41:31.535Z,17.96
2022-09-10T11:44:06.794Z,17.91
2022-09-10T11:46:37.999Z,17.81
2022-09-10T11:49:11.621Z,17.71
2022-09-10T11:51:39.927Z,17.67
2022-09-10T11:54:13.295Z,17.91
2022-09-10T11:56:49.840Z,17.89
2022-09-10T11:59:40.689Z,17.93
2022-09-10T12:02:25.835Z,17.94
2022-09-10T12:05:00.068Z,17.90
2022-09-10T12:07:41.448Z,18.03
2022-09-10T12:10:18.476Z,17.96
2022-09-10T12:12:46.967Z,18.02
2022-09-10T12:15:19.595Z,18.05
2022-09-10T12:17:50.589Z,17.74
2022-09-10T12:20:20.219Z,17.72
2022-09-10T12:22:52.790Z,17.40
2022-09-10T12:25:31.762Z,17.16
2022-09-10T12:28:02.360Z,16.79
2022-09-10T12:31:00.006Z,16.45
2022-09-10T12:34:14.641Z,16.21
2022-09-10T12:37:18.386Z,15.83
2022-09-10T12:39:45.317Z,15.56
2022-09-10T12:42:31.064Z,15.29
2022-09-10T12:44:57.793Z,15.10
2022-09-10T12:47:45.012Z,15.18
2022-09-10T12:50:36.978Z,15.26
2022-09-10T12:53:36.143Z,15.33
2022-09-10T12:56:17.121Z,15.38
2022-09-10T12:59:03.919Z,15.60
2022-09-10T13:01:40.679Z,15.70
2022-09-10T13:04:20.817Z,15.87
2022-09-10T13:06:47.952Z,15.95
2022-09-10T13:09:21.150Z,16.11
2022-09-10T13:11:51.849Z,16.18
2022-09-10T13:14:23.554Z,16.14
2022-09-10T13:16:50.060Z,16.17
2022-09-10T13:19:48.829Z,16.29
2022-09-10T13:22:45.496Z,16.33
2022-09-10T13:25:34.657Z,16.36
2022-09-10T13:28:01.485Z,16.33
2022-09-10T13:30:30.377Z,16.37
2022-09-10T13:32:59.660Z,16.51
2022-09-10T13:35:53.175Z,16.24
2022-09-10T13:38:59.674Z,16.54
2022-09-10T13:41:52.816Z,16.64
2022-09-10T13:44:35.292Z,16.91
2022-09-10T13:47:11.631Z,17.07
2022-09-10T13:49:50.856Z,16.74
2022-09-10T13:52:21.451Z,16.79
2022-09-10T13:54:51.853Z,16.99
2022-09-10T13:57:24.540Z,16.94
2022-09-10T13:59:59.201Z,16.85
2022-09-10T14:02:43.385Z,17.00
2022-09-10T14:05:41.823Z,17.01
2022-09-10T14:08:14.271Z,17.19
2022-09-10T14:10:55.157Z,17.27
2022-09-10T14:13:27.439Z,17.41
2022-09-10T14:15:57.440Z,17.31
2022-09-10T14:18:32.574Z,17.24
2022-09-10T14:20:59.852Z,17.18
2022-09-10T14:23:26.809Z,17.02
2022-09-10T14:26:09.534Z,16.91
2022-09-10T14:28:47.541Z,16.98
2022-09-10T14:31:27.443Z,17.06
2022-09-10T14:33:57.594Z,16.83
2022-09-10T14:36:32.241Z,16.67
2022-09-10T14:39:04.064Z,16.76
2022-09-10T14:41:32.788Z,16.61
2022-09-10T14:44:26.986Z,16.40
2022-09-10T14:46:54.972Z,16.34
2022-09-10T14:49:27.073Z,16.18
2022-09-10T14:51:54.036Z,16.28
2022-09-10T14:54:20.624Z,16.27
2022-09-10T14:56:48.264Z,16.34
2022-09-10T14:59:18.358Z,16.42
2022-09-10T15:01:46.648Z,16.46
2022-09-10T15:04:15.791Z,16.78
2022-09-10T15:06:43.963Z,17.21
2022-09-10T15:09:11.955Z,17.40
2022-09-10T15:11:44.870Z,17.39
2022-09-10T15:14:14.335Z,17.24
2022-09-10T15:16:41.225Z,17.22
2022-09-10T15:19:07.909Z,17.16
2022-09-10T15:21:34.532Z,17.34
2022-09-10T15:24:02.877Z,17.47
2022-09-10T15:26:29.405Z,17.44
2022-09-10T15:28:56.231Z,17.27
2022-09-10T15:31:22.752Z,17.19
2022-09-10T15:33:49.325Z,17.17
2022-09-10T15:36:15.840Z,16.98
2022-09-10T15:38:42.349Z,17.07
2022-09-10T15:41:12.898Z,17.04
2022-09-10T15:43:42.617Z,17.27
2022-09-10T15:46:10.020Z,17.40
2022-09-10T15:48:36.960Z,17.46
2022-09-10T15:51:05.168Z,17.21
2022-09-10T15:53:32.754Z,16.91
2022-09-10T15:56:03.275Z,16.63
2022-09-10T15:58:31.286Z,16.59
2022-09-10T16:01:02.473Z,16.58
2022-09-10T16:03:29.016Z,16.63
2022-09-10T16:05:59.965Z,16.77
2022-09-10T16:08:26.801Z,16.62
2022-09-10T16:10:53.408Z,16.70
2022-09-10T16:13:19.942Z,16.40
2022-09-10T16:15:58.961Z,16.45
2022-09-10T16:18:26.367Z,16.49
2022-09-10T16:20:52.865Z,16.21
2022-09-10T16:23:19.511Z,16.04
2022-09-10T16:25:50.785Z,16.11
2022-09-10T16:28:17.295Z,16.21
2022-09-10T16:30:43.792Z,16.23
2022-09-10T16:33:11.680Z,16.19
2022-09-10T16:35:38.340Z,15.99
2022-09-10T16:38:04.927Z,16.10
2022-09-10T16:40:31.443Z,16.08
2022-09-10T16:42:57.969Z,16.17
2022-09-10T16:45:24.481Z,16.18
2022-09-10T16:47:51.250Z,16.07
2022-09-10T16:50:19.376Z,15.98
2022-09-10T16:52:45.970Z,16.03
2022-09-10T16:55:12.561Z,16.06
2022-09-10T16:57:39.096Z,16.00
2022-09-10T17:00:07.144Z,15.99
2022-09-10T17:02:33.753Z,15.95
2022-09-10T17:05:05.793Z,15.99
2022-09-10T17:07:33.675Z,15.91
2022-09-10T17:10:01.091Z,15.82
2022-09-10T17:12:27.910Z,15.71
2022-09-10T17:14:54.459Z,15.70
2022-09-10T17:17:20.999Z,15.48
2022-09-10T17:19:47.623Z,15.58
2022-09-10T17:22:14.152Z,15.57
2022-09-10T17:24:42.100Z,15.62
2022-09-10T17:27:08.673Z,15.65
2022-09-10T17:29:35.232Z,15.72
2022-09-10T17:32:02.161Z,15.76
2022-09-10T17:34:28.723Z,15.75
2022-09-10T17:36:55.279Z,15.73
2022-09-10T17:39:21.919Z,15.69
2022-09-10T17:41:49.795Z,15.60
2022-09-10T17:44:16.386Z,15.61
2022-09-10T17:46:43.105Z,15.60
2022-09-10T17:49:12.742Z,15.55
2022-09-10T17:51:39.334Z,15.58
2022-09-10T17:54:05.895Z,15.47
2022-09-10T17:56:32.425Z,15.43
2022-09-10T17:59:03.065Z,15.46
2022-09-10T18:01:31.484Z,15.39
2022-09-10T18:03:58.538Z,15.39
2022-09-10T18:06:25.784Z,15.35
2022-09-10T18:08:52.790Z,15.31
2022-09-10T18:11:21.865Z,15.47
2022-09-10T18:13:50.160Z,15.49
2022-09-10T18:16:19.384Z,15.47
2022-09-10T18:18:51.013Z,15.44
2022-09-10T18:21:19.661Z,15.29
2022-09-10T18:23:50.934Z,15.34
2022-09-10T18:26:19.328Z,15.19
2022-09-10T18:28:52.827Z,15.29
2022-09-10T18:31:21.305Z,15.33
2022-09-10T18:33:47.901Z,15.23
2022-09-10T18:36:16.604Z,15.19
2022-09-10T18:38:44.187Z,15.21
2022-09-10T18:41:18.910Z,15.17
2022-09-10T18:43:45.940Z,15.21
2022-09-10T18:46:12.859Z,15.22
2022-09-10T18:48:40.886Z,15.19
2022-09-10T18:51:09.349Z,15.14
2022-09-10T18:53:36.126Z,15.12
2022-09-10T18:56:06.411Z,15.13
2022-09-10T18:58:32.985Z,15.15
2022-09-10T19:01:03.969Z,15.14
2022-09-10T19:03:34.359Z,15.17
2022-09-10T19:06:04.124Z,15.17
2022-09-10T19:08:30.687Z,15.13
2022-09-10T19:10:57.955Z,15.19
2022-09-10T19:13:24.661Z,15.24
2022-09-10T19:15:54.310Z,15.09
2022-09-10T19:18:20.905Z,15.13
2022-09-10T19:20:47.600Z,15.10
2022-09-10T19:23:19.544Z,15.14
2022-09-10T19:25:50.796Z,15.15
2022-09-10T19:28:17.548Z,15.14
2022-09-10T19:30:44.252Z,14.98
2022-09-10T19:33:11.011Z,14.89
2022-09-10T19:35:37.592Z,14.84
2022-09-10T19:38:15.922Z,14.82
2022-09-10T19:41:01.956Z,14.80
2022-09-10T19:43:28.526Z,14.82
2022-09-10T19:45:55.332Z,14.87
2022-09-10T19:48:22.041Z,14.87
2022-09-10T19:50:48.727Z,14.86
2022-09-10T19:53:15.525Z,14.89
2022-09-10T19:55:42.545Z,14.68
2022-09-10T19:58:10.683Z,14.64
2022-09-10T20:00:46.886Z,14.63
2022-09-10T20:03:13.947Z,14.55
2022-09-10T20:05:40.645Z,14.37
2022-09-10T20:08:07.171Z,14.38
2022-09-10T20:10:33.879Z,14.27
2022-09-10T20:13:00.421Z,14.17
2022-09-10T20:15:28.355Z,14.16
2022-09-10T20:17:54.887Z,14.06
2022-09-10T20:20:21.459Z,14.03
2022-09-10T20:22:47.998Z,13.97
2022-09-10T20:25:14.765Z,13.88
2022-09-10T20:27:41.306Z,13.84
2022-09-10T20:30:08.537Z,13.81
2022-09-10T20:32:36.435Z,13.77
2022-09-10T20:35:03.023Z,13.86
2022-09-10T20:37:29.571Z,13.88
2022-09-10T20:39:56.164Z,13.88
2022-09-10T20:42:22.788Z,13.81
2022-09-10T20:44:49.365Z,13.88
2022-09-10T20:47:15.925Z,13.87
2022-09-10T20:49:43.874Z,13.93
2022-09-10T20:52:10.435Z,13.98
2022-09-10T20:54:36.993Z,13.99
2022-09-10T20:57:03.892Z,14.03
2022-09-10T20:59:30.441Z,14.03
2022-09-10T21:01:57.244Z,14.00
2022-09-10T21:04:23.859Z,13.95
2022-09-10T21:06:51.845Z,13.92
2022-09-10T21:09:18.371Z,13.97
2022-09-10T21:11:45.054Z,13.77
2022-09-10T21:14:12.148Z,13.79
2022-09-10T21:16:40.228Z,13.82
2022-09-10T21:19:08.941Z,13.82
2022-09-10T21:21:36.795Z,13.86
2022-09-10T21:24:07.039Z,13.82
2022-09-10T21:26:36.539Z,13.80
2022-09-10T21:29:04.697Z,13.72
2022-09-10T21:31:31.437Z,13.60
2022-09-10T21:34:03.002Z,13.56
2022-09-10T21:36:31.404Z,13.57
2022-09-10T21:38:59.299Z,13.55
2022-09-10T21:41:30.104Z,13.54
2022-09-10T21:43:56.665Z,13.57
2022-09-10T21:46:23.865Z,13.49
2022-09-10T21:48:51.072Z,13.50
2022-09-10T21:51:19.375Z,13.47
2022-09-10T21:53:46.943Z,13.52
2022-09-10T21:56:15.643Z,13.53
2022-09-10T21:58:45.022Z,13.53
2022-09-10T22:01:13.729Z,13.56
2022-09-10T22:03:40.742Z,13.57
2022-09-10T22:06:08.887Z,13.60
2022-09-10T22:08:36.774Z,13.66
2022-09-10T22:11:08.056Z,13.68
2022-09-10T22:13:35.128Z,13.69
2022-09-10T22:16:04.140Z,13.66
2022-09-10T22:18:31.031Z,13.59
2022-09-10T22:20:58.231Z,13.62
2022-09-10T22:23:24.901Z,13.57
2022-09-10T22:25:51.467Z,13.60
2022-09-10T22:28:18.019Z,13.52
2022-09-10T22:30:44.560Z,13.51
2022-09-10T22:33:12.698Z,13.50
2022-09-10T22:35:39.394Z,13.39
2022-09-10T22:38:06.024Z,13.45
2022-09-10T22:40:33.230Z,13.46
2022-09-10T22:42:59.917Z,13.43
2022-09-10T22:45:26.594Z,13.50
2022-09-10T22:47:53.200Z,13.62
2022-09-10T22:50:21.184Z,13.57
2022-09-10T22:52:47.943Z,13.64
2022-09-10T22:55:14.700Z,13.71
2022-09-10T22:57:41.299Z,13.68
2022-09-10T23:00:08.879Z,13.64
2022-09-10T23:02:35.500Z,13.55
2022-09-10T23:05:02.045Z,13.58
2022-09-10T23:07:29.971Z,13.55
2022-09-10T23:09:56.692Z,13.52
2022-09-10T23:12:23.291Z,13.43
2022-09-10T23:14:49.861Z,13.43
2022-09-10T23:17:20.659Z,13.38
2022-09-10T23:19:49.262Z,13.36
2022-09-10T23:22:16.064Z,13.35
2022-09-10T23:24:44.060Z,13.37
2022-09-10T23:27:10.641Z,13.39
2022-09-10T23:29:37.217Z,13.39
2022-09-10T23:32:03.817Z,13.42
2022-09-10T23:34:30.412Z,13.43
2022-09-10T23:36:57.015Z,13.41
2022-09-10T23:39:24.640Z,13.41
2022-09-10T23:41:55.704Z,13.42
2022-09-10T23:44:22.803Z,13.41
2022-09-10T23:46:49.581Z,13.43
2022-09-10T23:49:16.625Z,13.45
2022-09-10T23:51:43.291Z,13.43
2022-09-10T23:54:12.151Z,13.48
2022-09-10T23:56:39.028Z,13.44
2022-09-10T23:59:07.352Z,13.43
